Time;durP1;ratioP1;P1;durP2;ratioP2;P2;SDS_P1;SDS_P2;PMS_P1;PMS_P2;Temp;Humidity;BMP_temperature;BMP_pressure;BME280_temperature;BME280_humidity;BME280_pressure;Samples;Min_cycle;Max_cycle;Signal;HPM_P1;HPM_P2
2023/04/02 00:00:37;;;;;;;0.57;0.50;;;8.90;1.00;;;;;;7367174;19;20015;-69
2023/04/02 00:03:09;;;;;;;1.08;0.47;;;8.90;1.00;;;;;;7369670;19;20030;-69
2023/04/02 00:05:55;;;;;;;0.73;0.30;;;8.80;1.00;;;;;;7389982;19;20006;-69
2023/04/02 00:08:40;;;;;;;1.75;0.57;;;8.90;1.00;;;;;;7367156;19;20485;-69
2023/04/02 00:11:11;;;;;;;1.17;0.60;;;8.80;1.00;;;;;;7367304;19;20006;-70
2023/04/02 00:13:45;;;;;;;1.45;0.52;;;8.80;1.00;;;;;;7366661;19;20692;-70
2023/04/02 00:16:19;;;;;;;2.67;0.68;;;8.80;1.00;;;;;;7367046;19;20020;-68
2023/04/02 00:18:54;;;;;;;2.03;0.50;;;8.80;1.00;;;;;;7365715;19;20042;-70
2023/04/02 00:21:27;;;;;;;0.57;0.30;;;8.80;1.00;;;;;;7368557;19;20010;-69
2023/04/02 00:24:02;;;;;;;0.90;0.40;;;8.70;1.00;;;;;;7375278;19;20015;-70
2023/04/02 00:26:35;;;;;;;2.15;0.60;;;8.80;1.00;;;;;;7390948;19;20014;-68
2023/04/02 00:29:07;;;;;;;0.60;0.50;;;8.80;1.00;;;;;;7364920;19;20471;-70
2023/04/02 00:31:42;;;;;;;0.70;0.40;;;8.70;1.00;;;;;;7367123;19;20011;-69
2023/04/02 00:34:19;;;;;;;0.47;0.30;;;8.70;1.00;;;;;;7373466;19;20021;-68
2023/04/02 00:36:50;;;;;;;2.03;0.40;;;8.70;1.00;;;;;;7372928;19;20396;-69
2023/04/02 00:39:26;;;;;;;1.17;0.43;;;8.70;1.00;;;;;;7371960;19;20090;-69
2023/04/02 00:42:03;;;;;;;0.57;0.30;;;8.70;1.00;;;;;;7390118;19;20035;-69
2023/04/02 00:44:37;;;;;;;3.03;0.40;;;8.70;1.00;;;;;;7396152;19;20035;-69
2023/04/02 00:47:15;;;;;;;2.38;0.50;;;8.70;1.00;;;;;;7374276;19;20010;-68
2023/04/02 00:49:46;;;;;;;1.27;0.70;;;8.70;1.00;;;;;;7370988;19;20014;-71
2023/04/02 00:52:18;;;;;;;1.15;0.60;;;8.70;1.00;;;;;;7375163;19;20010;-69
2023/04/02 00:54:55;;;;;;;0.40;0.40;;;8.70;1.00;;;;;;7372896;19;20010;-69
2023/04/02 00:57:27;;;;;;;2.25;0.60;;;8.70;1.00;;;;;;7374178;19;20011;-70
2023/04/02 01:00:02;;;;;;;1.30;0.40;;;8.70;1.00;;;;;;7378031;19;20418;-70
2023/04/02 01:02:34;;;;;;;0.82;0.60;;;8.70;1.00;;;;;;7396877;19;20018;-70
2023/04/02 01:05:21;;;;;;;1.50;0.50;;;8.70;1.00;;;;;;7372719;19;20449;-69
2023/04/02 01:08:06;;;;;;;0.80;0.40;;;8.70;1.00;;;;;;7370365;19;20014;-70
2023/04/02 01:10:59;;;;;;;1.08;0.65;;;8.60;1.00;;;;;;7372318;19;20014;-70
2023/04/02 01:13:35;;;;;;;0.88;0.40;;;8.60;1.00;;;;;;7371815;19;20478;-69
2023/04/02 01:16:11;;;;;;;0.43;0.32;;;8.70;1.00;;;;;;7372976;19;20007;-69
2023/04/02 01:18:53;;;;;;;0.85;0.45;;;8.60;1.00;;;;;;7371760;19;20388;-71
2023/04/02 01:21:54;;;;;;;0.70;0.40;;;8.60;1.00;;;;;;7374133;19;20014;-69
2023/04/02 01:24:27;;;;;;;0.98;0.55;;;8.60;1.00;;;;;;7369625;19;20529;-69
2023/04/02 01:27:01;;;;;;;1.70;0.50;;;8.70;1.00;;;;;;7388448;19;20014;-70
2023/04/02 01:29:37;;;;;;;0.70;0.32;;;8.60;1.00;;;;;;7391668;19;20024;-69
2023/04/02 01:32:10;;;;;;;1.70;0.57;;;8.60;1.00;;;;;;7373239;19;20015;-70
2023/04/02 01:34:43;;;;;;;1.30;0.60;;;8.70;1.00;;;;;;7372969;19;20398;-69
2023/04/02 01:37:33;;;;;;;1.02;0.55;;;8.60;1.00;;;;;;7373145;19;20006;-70
2023/04/02 01:40:17;;;;;;;0.90;0.50;;;8.60;1.00;;;;;;7371094;19;20023;-70
2023/04/02 01:42:57;;;;;;;2.60;0.57;;;8.60;1.00;;;;;;7372823;19;20007;-69
2023/04/02 01:45:30;;;;;;;1.63;0.68;;;8.60;1.00;;;;;;7370428;19;20010;-70
2023/04/02 01:48:00;;;;;;;0.95;0.40;;;8.60;1.00;;;;;;7373137;19;20018;-70
2023/04/02 01:50:35;;;;;;;1.10;0.63;;;8.60;1.00;;;;;;7392394;19;20014;-70
2023/04/02 01:53:08;;;;;;;1.00;0.40;;;8.60;1.00;;;;;;7372137;19;20019;-69
2023/04/02 01:55:43;;;;;;;1.13;0.60;;;8.60;1.00;;;;;;7370878;19;20010;-69
2023/04/02 01:58:14;;;;;;;1.60;0.63;;;8.60;1.00;;;;;;7372220;19;20011;-69
2023/04/02 02:00:52;;;;;;;0.80;0.50;;;8.60;1.00;;;;;;7369543;19;20010;-70
2023/04/02 02:03:23;;;;;;;0.73;0.50;;;8.60;1.00;;;;;;7369580;19;20392;-69
2023/04/02 02:05:53;;;;;;;1.63;0.60;;;8.60;1.00;;;;;;7394238;19;20474;-70
2023/04/02 02:08:39;;;;;;;0.60;0.40;;;8.60;1.00;;;;;;7370774;19;20014;-69
2023/04/02 02:11:15;;;;;;;2.45;0.40;;;8.60;1.00;;;;;;7371919;19;20021;-69
2023/04/02 02:13:49;;;;;;;1.92;0.52;;;8.60;1.00;;;;;;7371056;19;20021;-69
2023/04/02 02:16:22;;;;;;;2.90;0.93;;;8.60;1.00;;;;;;7370934;19;20038;-69
2023/04/02 02:18:55;;;;;;;1.73;0.82;;;8.60;1.00;;;;;;7369392;19;20417;-69
2023/04/02 02:21:36;;;;;;;1.75;0.50;;;8.60;1.00;;;;;;7372174;19;20333;-70
2023/04/02 02:24:09;;;;;;;0.50;0.40;;;8.60;1.00;;;;;;7372227;19;20021;-69
2023/04/02 02:26:39;;;;;;;1.05;0.35;;;8.60;1.00;;;;;;7394516;19;20011;-69
2023/04/02 02:29:16;;;;;;;0.52;0.40;;;8.60;1.00;;;;;;7368148;19;20054;-70
2023/04/02 02:31:54;;;;;;;1.02;0.50;;;8.60;1.00;;;;;;7370802;19;20013;-69
2023/04/02 02:34:33;;;;;;;0.63;0.40;;;8.70;1.00;;;;;;7369872;19;20390;-69
2023/04/02 02:37:07;;;;;;;2.22;0.57;;;8.70;1.00;;;;;;7371403;19;20549;-69
2023/04/02 02:39:41;;;;;;;0.65;0.45;;;8.70;1.00;;;;;;7368331;19;20022;-69
2023/04/02 02:42:17;;;;;;;0.80;0.50;;;8.70;1.00;;;;;;7372588;19;20010;-70
2023/04/02 02:44:50;;;;;;;1.33;0.50;;;8.70;1.00;;;;;;7392934;19;20027;-69
2023/04/02 02:47:27;;;;;;;0.80;0.40;;;8.70;1.00;;;;;;7370125;19;20377;-69
2023/04/02 02:50:01;;;;;;;0.45;0.40;;;8.70;1.00;;;;;;7368589;19;20019;-69
2023/04/02 02:52:33;;;;;;;0.63;0.40;;;8.70;1.00;;;;;;7370191;19;20054;-69
2023/04/02 02:55:06;;;;;;;1.20;0.30;;;8.70;1.00;;;;;;7369761;19;20010;-69
2023/04/02 02:57:40;;;;;;;1.17;0.38;;;8.70;1.00;;;;;;7368501;19;20119;-69
2023/04/02 03:00:14;;;;;;;1.80;0.47;;;8.70;1.00;;;;;;7368623;19;20045;-69
2023/04/02 03:02:48;;;;;;;0.80;0.32;;;8.70;1.00;;;;;;7393477;19;20014;-70
2023/04/02 03:05:21;;;;;;;3.95;0.60;;;8.70;1.00;;;;;;7369504;19;20017;-69
2023/04/02 03:07:53;;;;;;;0.85;0.40;;;8.70;1.00;;;;;;7369124;19;20010;-70
2023/04/02 03:10:31;;;;;;;1.33;0.45;;;8.70;1.00;;;;;;7368456;19;20015;-69
2023/04/02 03:13:07;;;;;;;0.90;0.40;;;8.70;1.00;;;;;;7370568;19;20355;-69
2023/04/02 03:15:42;;;;;;;0.73;0.40;;;8.70;1.00;;;;;;7368927;19;20545;-69
2023/04/02 03:18:21;;;;;;;1.90;0.40;;;8.70;1.00;;;;;;7368060;19;20481;-68
2023/04/02 03:20:55;;;;;;;1.65;0.38;;;8.70;1.00;;;;;;7389920;19;20118;-69
2023/04/02 03:23:31;;;;;;;1.87;0.37;;;8.70;1.00;;;;;;7371694;19;20014;-69
2023/04/02 03:26:06;;;;;;;1.67;0.43;;;8.70;1.00;;;;;;7369620;19;20257;-69
2023/04/02 03:28:43;;;;;;;1.63;0.50;;;8.70;1.00;;;;;;7367855;19;20526;-68
2023/04/02 03:31:18;;;;;;;0.93;0.50;;;8.70;1.00;;;;;;7368571;19;20486;-69
2023/04/02 03:33:56;;;;;;;1.05;0.45;;;8.70;1.00;;;;;;7369814;19;20014;-69
2023/04/02 03:36:30;;;;;;;0.60;0.47;;;8.70;1.00;;;;;;7369217;19;20078;-69
2023/04/02 03:39:10;;;;;;;1.88;0.60;;;8.70;1.00;;;;;;7368538;19;20542;-69
2023/04/02 03:41:46;;;;;;;2.40;0.32;;;8.70;1.00;;;;;;7390513;19;20077;-68
2023/04/02 03:44:25;;;;;;;0.80;0.35;;;8.70;1.00;;;;;;7368817;19;20503;-68
2023/04/02 03:46:59;;;;;;;0.52;0.35;;;8.70;1.00;;;;;;7367831;19;20019;-69
2023/04/02 03:49:37;;;;;;;0.55;0.35;;;8.70;1.00;;;;;;7366271;19;20038;-70
2023/04/02 03:52:13;;;;;;;0.90;0.43;;;8.70;1.00;;;;;;7368806;19;20093;-69
2023/04/02 03:54:43;;;;;;;0.52;0.30;;;8.70;1.00;;;;;;7368475;19;20033;-69
2023/04/02 03:57:31;;;;;;;0.45;0.38;;;8.80;1.00;;;;;;7366345;19;20052;-68
2023/04/02 04:00:07;;;;;;;0.85;0.32;;;8.80;1.00;;;;;;7367757;19;20035;-69
2023/04/02 04:02:43;;;;;;;1.45;0.30;;;8.70;1.00;;;;;;7390626;19;20024;-70
2023/04/02 04:05:27;;;;;;;1.25;0.40;;;8.70;1.00;;;;;;7367158;19;20089;-69
2023/04/02 04:08:03;;;;;;;0.90;0.50;;;8.70;1.00;;;;;;7364971;19;20018;-71
2023/04/02 04:10:34;;;;;;;1.63;0.43;;;8.70;1.00;;;;;;7367318;19;20247;-69
2023/04/02 04:13:07;;;;;;;1.35;0.60;;;8.70;1.00;;;;;;7368339;19;20083;-69
2023/04/02 04:15:42;;;;;;;0.50;0.40;;;8.70;1.00;;;;;;7367261;19;20066;-69
2023/04/02 04:18:20;;;;;;;1.38;0.45;;;8.70;1.00;;;;;;7367218;19;20015;-70
2023/04/02 04:20:57;;;;;;;2.20;0.50;;;8.70;1.00;;;;;;7388708;19;20021;-69
2023/04/02 04:23:31;;;;;;;1.00;0.40;;;8.60;1.10;;;;;;7368998;19;20010;-69
2023/04/02 04:26:08;;;;;;;1.30;0.30;;;8.60;1.30;;;;;;7367755;19;20017;-70
2023/04/02 04:28:45;;;;;;;1.05;0.50;;;8.60;1.30;;;;;;7365234;19;20111;-69
2023/04/02 04:31:20;;;;;;;0.68;0.50;;;8.60;2.00;;;;;;7367035;19;20522;-70
2023/04/02 04:34:01;;;;;;;1.45;0.60;;;8.60;2.50;;;;;;7368000;19;20143;-70
2023/04/02 04:36:52;;;;;;;1.33;0.50;;;8.50;2.70;;;;;;7367702;19;20010;-70
2023/04/02 04:39:28;;;;;;;1.08;0.57;;;8.50;3.80;;;;;;7364489;19;20022;-70
2023/04/02 04:42:01;;;;;;;0.70;0.40;;;8.50;4.60;;;;;;7368496;19;20017;-69
2023/04/02 04:44:41;;;;;;;1.33;0.60;;;8.50;6.00;;;;;;7388767;19;20097;-69
2023/04/02 04:47:19;;;;;;;2.88;0.75;;;8.40;7.10;;;;;;7365654;19;20006;-70
2023/04/02 04:49:55;;;;;;;1.48;0.88;;;8.50;7.60;;;;;;7364787;19;20399;-69
2023/04/02 04:52:34;;;;;;;2.28;0.70;;;8.50;7.60;;;;;;7365733;19;20011;-69
2023/04/02 04:55:05;;;;;;;1.30;0.73;;;8.40;7.50;;;;;;7365789;19;20011;-69
2023/04/02 04:57:39;;;;;;;0.80;0.50;;;8.40;7.50;;;;;;7366475;19;20049;-70
2023/04/02 05:00:18;;;;;;;0.90;0.70;;;8.40;8.20;;;;;;7365953;19;20031;-68
2023/04/02 05:02:54;;;;;;;2.88;0.88;;;8.40;9.10;;;;;;7389829;19;20039;-70
2023/04/02 05:05:28;;;;;;;2.40;0.90;;;8.40;9.10;;;;;;7366358;19;20017;-69
2023/04/02 05:08:02;;;;;;;;;;;8.40;9.60;;;;;;7365237;19;20042;-69
2023/04/02 05:10:38;;;;;;;4.50;1.00;;;8.40;10.40;;;;;;7366031;19;19918;-69
2023/04/02 05:13:16;;;;;;;1.95;1.00;;;8.40;9.80;;;;;;7366443;19;20006;-70
2023/04/02 05:15:53;;;;;;;1.60;0.85;;;8.40;10.90;;;;;;7365812;19;20010;-69
2023/04/02 05:18:29;;;;;;;1.80;0.80;;;8.40;10.60;;;;;;7365474;19;20010;-69
2023/04/02 05:21:05;;;;;;;1.63;0.70;;;8.40;10.50;;;;;;7372312;19;20428;-70
2023/04/02 05:23:46;;;;;;;2.63;0.75;;;8.40;10.00;;;;;;7395289;19;20011;-69
2023/04/02 05:26:20;;;;;;;1.67;0.88;;;8.40;10.70;;;;;;7373930;19;20011;-69
2023/04/02 05:28:55;;;;;;;0.97;0.63;;;8.40;9.50;;;;;;7370787;19;20038;-70
2023/04/02 05:31:29;;;;;;;2.10;1.08;;;8.40;9.70;;;;;;7371932;19;20010;-69
2023/04/02 05:34:00;;;;;;;2.95;1.05;;;8.40;11.10;;;;;;7373529;19;20029;-69
2023/04/02 05:36:32;;;;;;;3.25;1.52;;;8.40;10.90;;;;;;7373171;19;20015;-69
2023/04/02 05:39:09;;;;;;;3.00;1.75;;;8.30;12.40;;;;;;7370958;19;20033;-69
2023/04/02 05:41:42;;;;;;;4.28;2.45;;;8.30;12.90;;;;;;7395157;19;20484;-70
2023/04/02 05:44:19;;;;;;;4.72;2.25;;;8.30;14.20;;;;;;7371972;19;20070;-69
2023/04/02 05:46:54;;;;;;;4.47;1.65;;;8.40;14.80;;;;;;7371706;19;20010;-70
2023/04/02 05:49:33;;;;;;;7.38;2.65;;;8.30;14.60;;;;;;7369383;19;20014;-69
2023/04/02 05:52:05;;;;;;;3.28;2.10;;;8.30;14.70;;;;;;7372586;19;20014;-69
2023/04/02 05:54:45;;;;;;;4.80;2.58;;;8.30;15.60;;;;;;7371608;19;20086;-69
2023/04/02 05:57:20;;;;;;;2.95;1.77;;;8.30;15.50;;;;;;7372572;19;20031;-70
2023/04/02 06:00:02;;;;;;;2.08;1.17;;;8.40;16.20;;;;;;7370325;19;20021;-69
2023/04/02 06:02:36;;;;;;;2.30;1.25;;;8.40;17.20;;;;;;7394612;19;20014;-69
2023/04/02 06:05:14;;;;;;;1.08;0.90;;;8.40;18.20;;;;;;7371389;19;20066;-69
2023/04/02 06:07:49;;;;;;;4.63;1.38;;;8.40;18.30;;;;;;7370279;19;20078;-69
2023/04/02 06:10:25;;;;;;;2.17;1.02;;;8.40;18.30;;;;;;7372550;19;20019;-69
2023/04/02 06:13:02;;;;;;;2.33;1.00;;;8.50;18.40;;;;;;7371828;19;20090;-69
2023/04/02 06:15:34;;;;;;;3.45;1.15;;;8.50;18.40;;;;;;7370856;19;20022;-69
2023/04/02 06:18:10;;;;;;;3.22;0.98;;;8.50;18.40;;;;;;7371367;19;20006;-70
2023/04/02 06:20:40;;;;;;;2.38;1.10;;;8.50;18.70;;;;;;7391783;19;20481;-68
2023/04/02 06:23:17;;;;;;;2.85;1.20;;;8.40;19.10;;;;;;7372529;19;20011;-69
2023/04/02 06:25:53;;;;;;;1.42;1.10;;;8.40;19.40;;;;;;7371776;19;20478;-69
2023/04/02 06:28:28;;;;;;;2.42;1.10;;;8.40;19.70;;;;;;7369782;19;20097;-70
2023/04/02 06:31:02;;;;;;;1.20;1.02;;;8.50;19.90;;;;;;7367366;19;20026;-70
2023/04/02 06:33:32;;;;;;;1.27;1.13;;;8.50;19.60;;;;;;7372063;19;20011;-70
2023/04/02 06:36:04;;;;;;;3.10;1.40;;;8.60;20.80;;;;;;7372974;19;20074;-69
2023/04/02 06:38:35;;;;;;;4.65;1.58;;;8.60;20.00;;;;;;7391750;19;20014;-69
2023/04/02 06:41:16;;;;;;;3.60;1.45;;;8.60;20.40;;;;;;7369571;19;20451;-70
2023/04/02 06:43:50;;;;;;;1.55;1.00;;;8.70;19.80;;;;;;7369912;19;20474;-69
2023/04/02 06:46:25;;;;;;;2.47;1.30;;;8.60;18.90;;;;;;7369946;19;20010;-70
2023/04/02 06:49:02;;;;;;;3.42;1.67;;;8.70;18.70;;;;;;7369750;19;20013;-69
2023/04/02 06:51:35;;;;;;;3.03;1.40;;;8.70;18.50;;;;;;7370150;19;20010;-70
2023/04/02 06:54:05;;;;;;;3.45;1.50;;;8.80;18.20;;;;;;7371363;19;20530;-69
2023/04/02 06:56:44;;;;;;;1.98;1.60;;;8.90;17.40;;;;;;7392716;19;20014;-70
2023/04/02 06:59:15;;;;;;;4.97;1.70;;;8.90;16.60;;;;;;7369053;19;20498;-68
2023/04/02 07:01:50;;;;;;;2.58;1.48;;;8.80;15.10;;;;;;7369445;19;20014;-68
2023/04/02 07:04:21;;;;;;;1.85;1.38;;;8.90;15.20;;;;;;7369055;19;20018;-69
2023/04/02 07:06:52;;;;;;;2.13;1.27;;;9.00;15.10;;;;;;7369535;19;20401;-69
2023/04/02 07:09:22;;;;;;;1.70;0.93;;;9.00;14.00;;;;;;7369207;19;20013;-69
2023/04/02 07:11:54;;;;;;;1.20;1.02;;;9.00;15.10;;;;;;7393091;19;20011;-70
2023/04/02 07:14:24;;;;;;;1.83;1.20;;;9.00;14.60;;;;;;7369876;19;20011;-69
2023/04/02 07:16:54;;;;;;;1.42;0.80;;;9.10;13.30;;;;;;7368184;19;20031;-70
2023/04/02 07:19:24;;;;;;;1.98;1.15;;;9.20;12.30;;;;;;7366707;19;20210;-69
2023/04/02 07:21:54;;;;;;;3.08;1.05;;;9.10;12.90;;;;;;7371383;19;20011;-69
2023/04/02 07:24:24;;;;;;;1.00;0.80;;;9.20;12.10;;;;;;7368774;19;20010;-69
2023/04/02 07:26:57;;;;;;;1.52;0.82;;;9.30;12.00;;;;;;7392108;19;20023;-69
2023/04/02 07:29:27;;;;;;;1.67;1.10;;;9.30;9.90;;;;;;7367568;19;20022;-70
2023/04/02 07:31:57;;;;;;;3.10;1.02;;;9.30;10.80;;;;;;7369380;19;20046;-70
2023/04/02 07:34:26;;;;;;;2.20;1.08;;;9.40;10.40;;;;;;7369189;19;20038;-70
2023/04/02 07:36:56;;;;;;;2.00;1.00;;;9.40;10.10;;;;;;7368594;19;20013;-69
2023/04/02 07:39:26;;;;;;;2.10;1.08;;;9.40;9.40;;;;;;7367073;19;20482;-70
2023/04/02 07:42:01;;;;;;;1.00;0.63;;;9.40;9.40;;;;;;7388697;19;20006;-69
2023/04/02 07:44:31;;;;;;;0.80;0.60;;;9.20;8.00;;;;;;7389826;19;20041;-70
2023/04/02 07:47:01;;;;;;;1.55;0.85;;;9.40;8.10;;;;;;7367161;19;20010;-70
2023/04/02 07:49:31;;;;;;;1.20;0.80;;;9.40;8.80;;;;;;7365593;19;20035;-69
2023/04/02 07:52:00;;;;;;;2.10;0.70;;;9.50;8.20;;;;;;7367794;19;20014;-70
2023/04/02 07:54:30;;;;;;;1.65;1.10;;;9.40;6.20;;;;;;7367831;19;20046;-69
2023/04/02 07:57:03;;;;;;;1.63;0.80;;;9.50;8.10;;;;;;7368289;19;20018;-69
2023/04/02 07:59:33;;;;;;;1.42;0.88;;;9.50;8.20;;;;;;7388931;19;20049;-69
2023/04/02 08:02:03;;;;;;;1.30;1.00;;;9.50;7.60;;;;;;7368264;19;20383;-69
2023/04/02 08:04:33;;;;;;;2.10;0.70;;;9.40;6.40;;;;;;7367118;19;20044;-69
2023/04/02 08:07:03;;;;;;;1.98;0.70;;;9.50;8.10;;;;;;7367267;19;20019;-70
2023/04/02 08:09:33;;;;;;;2.15;0.77;;;9.50;7.60;;;;;;7367496;19;20006;-69
2023/04/02 08:12:05;;;;;;;1.48;1.10;;;9.50;7.10;;;;;;7369530;19;20376;-69
2023/04/02 08:14:35;;;;;;;1.40;0.70;;;9.60;7.50;;;;;;7389672;19;20052;-69
2023/04/02 08:17:05;;;;;;;1.30;1.02;;;9.60;6.30;;;;;;7366597;19;20033;-70
2023/04/02 08:19:35;;;;;;;1.45;0.63;;;9.60;7.30;;;;;;7364798;19;20011;-70
2023/04/02 08:22:20;;;;;;;4.22;1.00;;;9.50;5.60;;;;;;7368051;19;20580;-69
2023/04/02 08:24:50;;;;;;;2.35;0.95;;;9.60;7.00;;;;;;7367116;19;20019;-69
2023/04/02 08:27:22;;;;;;;1.55;0.73;;;9.60;6.70;;;;;;7366394;19;20020;-70
2023/04/02 08:29:52;;;;;;;1.42;0.68;;;9.60;6.50;;;;;;7387596;19;20018;-69
2023/04/02 08:32:23;;;;;;;2.95;1.17;;;9.70;6.80;;;;;;7368197;19;20035;-70
2023/04/02 08:34:52;;;;;;;2.72;1.10;;;9.80;5.00;;;;;;7367309;19;20022;-70
2023/04/02 08:37:22;;;;;;;1.67;1.00;;;9.70;5.10;;;;;;7364849;19;20700;-69
2023/04/02 08:39:52;;;;;;;1.40;1.10;;;9.70;5.50;;;;;;7364054;19;20011;-69
2023/04/02 08:42:36;;;;;;;1.98;0.90;;;9.80;4.70;;;;;;7366744;19;20019;-70
2023/04/02 08:45:20;;;;;;;1.52;0.85;;;10.00;2.50;;;;;;7367690;19;20090;-70
2023/04/02 08:47:58;;;;;;;1.58;0.70;;;10.00;3.90;;;;;;7388750;19;20021;-69
2023/04/02 08:50:33;;;;;;;1.20;0.55;;;10.00;1.30;;;;;;7365865;19;20006;-69
2023/04/02 08:53:06;;;;;;;1.63;0.90;;;10.00;3.00;;;;;;7366694;19;20017;-70
2023/04/02 08:55:41;;;;;;;1.55;0.80;;;10.20;2.40;;;;;;7371939;19;20078;-69
2023/04/02 08:58:26;;;;;;;2.53;1.00;;;10.30;1.00;;;;;;7373511;19;20482;-69
2023/04/02 09:00:57;;;;;;;1.65;0.80;;;10.00;1.70;;;;;;7371767;19;20018;-68
2023/04/02 09:03:32;;;;;;;1.13;0.70;;;10.10;1.50;;;;;;7372714;19;20042;-68
2023/04/02 09:06:05;;;;;;;1.33;0.82;;;10.10;2.00;;;;;;7375530;19;20014;-70
2023/04/02 09:08:35;;;;;;;1.67;0.80;;;10.10;1.30;;;;;;7394499;19;20010;-70
2023/04/02 09:11:10;;;;;;;1.60;0.90;;;10.30;1.00;;;;;;7373722;19;20022;-69
2023/04/02 09:13:47;;;;;;;2.28;0.70;;;10.30;1.00;;;;;;7372838;19;20394;-69
2023/04/02 09:16:21;;;;;;;1.52;0.70;;;10.60;1.00;;;;;;7374191;19;20537;-69
2023/04/02 09:18:54;;;;;;;1.90;0.60;;;10.70;1.00;;;;;;7371318;19;20491;-70
2023/04/02 09:21:34;;;;;;;1.70;0.60;;;10.70;1.00;;;;;;7372672;19;20220;-69
2023/04/02 09:24:05;;;;;;;0.73;0.47;;;10.90;1.00;;;;;;7373756;19;20018;-69
2023/04/02 09:26:35;;;;;;;0.75;0.45;;;11.30;1.00;;;;;;7395653;19;20010;-69
2023/04/02 09:29:26;;;;;;;1.98;0.88;;;11.80;1.00;;;;;;7371343;19;20482;-70
2023/04/02 09:32:07;;;;;;;1.92;0.80;;;11.70;1.00;;;;;;7372636;19;20527;-70
2023/04/02 09:34:37;;;;;;;1.35;1.00;;;11.90;1.00;;;;;;7372517;19;20014;-70
2023/04/02 09:37:10;;;;;;;1.35;0.80;;;11.70;1.00;;;;;;7372970;19;20014;-70
2023/04/02 09:39:39;;;;;;;1.00;0.80;;;11.70;1.00;;;;;;7371174;19;20015;-70
2023/04/02 09:42:29;;;;;;;2.45;1.60;;;11.10;1.00;;;;;;7371686;19;20463;-69
2023/04/02 09:45:15;;;;;;;0.82;0.70;;;11.30;1.00;;;;;;7374136;19;20038;-69
2023/04/02 09:47:45;;;;;;;0.75;0.50;;;11.60;1.00;;;;;;7394218;19;20010;-69
2023/04/02 09:50:25;;;;;;;0.30;0.30;;;11.50;1.00;;;;;;7371136;19;20073;-70
2023/04/02 09:52:55;;;;;;;1.60;0.38;;;11.70;1.00;;;;;;7372091;19;20082;-70
2023/04/02 09:55:29;;;;;;;1.67;0.80;;;11.80;1.00;;;;;;7371368;19;20017;-69
2023/04/02 09:58:14;;;;;;;1.00;0.60;;;11.80;1.00;;;;;;7372508;19;20014;-69
2023/04/02 10:00:55;;;;;;;0.50;0.40;;;11.70;1.00;;;;;;7369594;19;20042;-69
2023/04/02 10:03:27;;;;;;;2.08;1.73;;;11.50;1.00;;;;;;7371526;19;20013;-69
2023/04/02 10:06:16;;;;;;;1.95;0.73;;;11.80;1.00;;;;;;7379597;19;20015;-70
2023/04/02 10:08:47;;;;;;;0.38;0.30;;;12.10;1.00;;;;;;7394011;19;20026;-68
2023/04/02 10:11:21;;;;;;;0.38;0.38;;;12.10;1.00;;;;;;7374071;19;20115;-70
2023/04/02 10:13:56;;;;;;;1.30;0.70;;;12.20;1.00;;;;;;7372853;19;20019;-69
2023/04/02 10:16:32;;;;;;;0.65;0.47;;;12.10;1.00;;;;;;7372333;19;20471;-68
2023/04/02 10:19:08;;;;;;;1.13;0.63;;;12.00;1.00;;;;;;7370904;19;20023;-70
2023/04/02 10:21:40;;;;;;;1.05;0.35;;;12.20;1.00;;;;;;7379663;19;20010;-70
2023/04/02 10:24:13;;;;;;;0.40;0.40;;;12.10;1.00;;;;;;7399526;19;20014;-69
2023/04/02 10:26:53;;;;;;;0.53;0.43;;;12.20;1.00;;;;;;7416208;19;20007;-69
2023/04/02 10:29:40;;;;;;;1.20;0.80;;;12.00;1.00;;;;;;7377511;19;20271;-69
2023/04/02 10:32:17;;;;;;;0.85;0.50;;;12.40;1.00;;;;;;7371759;19;20512;-70
2023/04/02 10:34:55;;;;;;;0.40;0.30;;;12.00;1.00;;;;;;7372139;19;20021;-70
2023/04/02 10:38:07;;;;;;;0.68;0.52;;;11.20;1.00;;;;;;7370957;19;20010;-69
2023/04/02 10:40:41;;;;;;;0.80;0.57;;;12.20;1.00;;;;;;7369443;19;20081;-70
2023/04/02 10:43:49;;;;;;;0.90;0.50;;;12.50;1.00;;;;;;7373965;19;20021;-69
2023/04/02 10:46:25;;;;;;;0.88;0.52;;;11.90;1.00;;;;;;7372539;19;20032;-69
2023/04/02 10:49:07;;;;;;;0.80;0.52;;;12.20;1.00;;;;;;7370263;19;20110;-71
2023/04/02 10:51:43;;;;;;;0.70;0.50;;;12.40;1.00;;;;;;7371323;19;20343;-70
2023/04/02 10:54:22;;;;;;;0.50;0.40;;;12.00;1.00;;;;;;7370949;19;20082;-69
2023/04/02 10:56:54;;;;;;;0.77;0.57;;;11.90;1.00;;;;;;7392769;19;20014;-70
2023/04/02 10:59:29;;;;;;;0.80;0.50;;;12.00;1.00;;;;;;7370145;19;20040;-70
2023/04/02 11:02:03;;;;;;;0.75;0.30;;;11.90;1.00;;;;;;7369045;19;20014;-70
2023/04/02 11:04:43;;;;;;;0.30;0.30;;;12.00;1.00;;;;;;7369940;19;20006;-69
2023/04/02 11:07:19;;;;;;;0.85;0.50;;;12.20;1.00;;;;;;7369437;19;20014;-69
2023/04/02 11:09:53;;;;;;;0.75;0.45;;;12.50;1.00;;;;;;7370209;19;20006;-69
2023/04/02 11:12:28;;;;;;;2.83;0.60;;;12.70;1.00;;;;;;7369854;19;20042;-69
2023/04/02 11:14:59;;;;;;;0.63;0.60;;;12.70;1.00;;;;;;7371329;19;20014;-70
2023/04/02 11:17:30;;;;;;;0.40;0.30;;;12.60;1.00;;;;;;7389847;19;20459;-71
2023/04/02 11:20:43;;;;;;;0.70;0.60;;;12.10;1.00;;;;;;7367967;19;20361;-69
2023/04/02 11:23:14;;;;;;;1.27;0.88;;;12.00;1.00;;;;;;7371612;19;20023;-68
2023/04/02 11:25:44;;;;;;;0.93;0.40;;;12.20;1.00;;;;;;7368421;19;20038;-69
2023/04/02 11:28:20;;;;;;;0.95;0.60;;;12.20;1.00;;;;;;7367517;19;20086;-69
2023/04/02 11:30:52;;;;;;;0.50;0.40;;;11.70;1.00;;;;;;7367259;19;20022;-70
2023/04/02 11:33:42;;;;;;;0.55;0.45;;;11.80;1.00;;;;;;7370397;19;20043;-70
2023/04/02 11:36:48;;;;;;;0.85;0.50;;;11.90;1.00;;;;;;7371768;19;20010;-68
2023/04/02 11:39:58;;;;;;;0.88;0.57;;;12.00;1.00;;;;;;7366626;19;20121;-70
2023/04/02 11:42:33;;;;;;;0.52;0.45;;;12.40;1.00;;;;;;7368739;19;20367;-70
2023/04/02 11:45:39;;;;;;;1.25;0.50;;;12.60;1.00;;;;;;7369706;19;20026;-70
2023/04/02 11:48:34;;;;;;;1.33;0.50;;;12.30;1.00;;;;;;7368113;19;20371;-70
2023/04/02 11:51:17;;;;;;;1.50;0.60;;;12.80;1.00;;;;;;7368563;19;20017;-69
2023/04/02 11:53:50;;;;;;;0.50;0.40;;;12.40;1.00;;;;;;7391316;19;20035;-69
2023/04/02 11:56:32;;;;;;;1.02;0.80;;;12.50;1.00;;;;;;7368477;19;20018;-69
2023/04/02 11:59:10;;;;;;;0.75;0.50;;;12.80;1.00;;;;;;7368530;19;20026;-70
2023/04/02 12:02:03;;;;;;;2.35;0.80;;;12.40;1.00;;;;;;7367108;19;20019;-70
2023/04/02 12:04:58;;;;;;;0.60;0.60;;;12.10;1.00;;;;;;7368401;19;20010;-69
2023/04/02 12:07:45;;;;;;;1.80;0.80;;;12.00;1.00;;;;;;7366189;19;20110;-70
2023/04/02 12:10:19;;;;;;;2.20;0.85;;;11.90;1.00;;;;;;7369294;19;20010;-70
2023/04/02 12:12:53;;;;;;;1.15;0.90;;;11.90;1.00;;;;;;7368890;19;20010;-70
2023/04/02 12:15:38;;;;;;;1.23;0.90;;;11.90;1.00;;;;;;7368070;19;20031;-69
2023/04/02 12:18:15;;;;;;;0.63;0.63;;;11.90;1.00;;;;;;7368761;19;20010;-69
2023/04/02 12:20:50;;;;;;;1.38;1.05;;;11.90;1.00;;;;;;7388732;19;20487;-70
2023/04/02 12:23:23;;;;;;;1.45;1.05;;;11.90;1.00;;;;;;7367465;19;20025;-69
2023/04/02 12:26:00;;;;;;;1.00;0.75;;;11.80;1.00;;;;;;7367426;19;20006;-69
2023/04/02 12:28:33;;;;;;;0.88;0.68;;;11.90;1.00;;;;;;7364458;19;20014;-69
2023/04/02 12:31:13;;;;;;;1.02;0.75;;;11.70;1.00;;;;;;7365082;19;20014;-70
2023/04/02 12:33:44;;;;;;;1.42;0.90;;;11.70;1.00;;;;;;7368437;19;20018;-69
2023/04/02 12:36:22;;;;;;;0.95;0.95;;;11.80;1.00;;;;;;7368389;19;20010;-70
2023/04/02 12:38:54;;;;;;;2.78;1.00;;;11.90;1.00;;;;;;7389870;19;20021;-70
2023/04/02 12:41:28;;;;;;;2.35;1.23;;;11.90;1.00;;;;;;7366515;19;20006;-69
2023/04/02 12:44:02;;;;;;;;;;;11.90;1.00;;;;;;7366022;19;20352;-69
2023/04/02 12:46:35;;;;;;;1.85;1.25;;;11.90;1.00;;;;;;7365151;19;20069;-70
2023/04/02 12:49:08;;;;;;;2.22;1.10;;;12.10;1.00;;;;;;7367795;19;20018;-69
2023/04/02 12:51:39;;;;;;;1.48;1.20;;;12.00;1.00;;;;;;7366829;19;20021;-68
2023/04/02 12:54:16;;;;;;;2.67;1.33;;;12.00;1.00;;;;;;7368281;19;20019;-69
2023/04/02 12:56:46;;;;;;;1.67;1.40;;;11.70;1.00;;;;;;7389191;19;20010;-67
2023/04/02 12:59:37;;;;;;;1.40;1.30;;;11.40;1.00;;;;;;7366631;19;20147;-70
2023/04/02 13:02:20;;;;;;;1.38;1.27;;;10.90;1.00;;;;;;7366998;19;20014;-71
2023/04/02 13:04:50;;;;;;;1.23;1.13;;;10.60;1.00;;;;;;7366024;19;20410;-70
2023/04/02 13:07:24;;;;;;;1.63;1.20;;;10.10;1.90;;;;;;7365059;19;20017;-70
2023/04/02 13:09:55;;;;;;;1.33;1.23;;;9.80;6.10;;;;;;7367598;19;20833;-71
2023/04/02 13:12:33;;;;;;;1.50;1.02;;;9.70;10.20;;;;;;7366761;19;20502;-70
2023/04/02 13:15:09;;;;;;;1.88;1.25;;;9.50;13.80;;;;;;7367629;19;20370;-69
2023/04/02 13:17:42;;;;;;;1.73;1.50;;;9.40;15.40;;;;;;7388224;19;20130;-70
2023/04/02 13:20:32;;;;;;;2.00;1.42;;;9.40;16.70;;;;;;7363895;19;20021;-70
2023/04/02 13:23:04;;;;;;;1.95;1.33;;;9.20;18.50;;;;;;7365420;19;20494;-69
2023/04/02 13:25:38;;;;;;;2.05;1.85;;;9.20;21.40;;;;;;7365332;19;20010;-69
2023/04/02 13:28:07;;;;;;;2.00;1.60;;;9.00;21.90;;;;;;7365639;19;20067;-70
2023/04/02 13:30:40;;;;;;;5.30;2.20;;;9.10;26.60;;;;;;7365362;19;20026;-70
2023/04/02 13:33:10;;;;;;;2.25;1.63;;;9.10;28.80;;;;;;7367831;19;20006;-68
2023/04/02 13:35:41;;;;;;;2.20;2.00;;;8.80;28.90;;;;;;7388810;19;20399;-69
2023/04/02 13:38:11;;;;;;;2.20;1.90;;;8.80;30.80;;;;;;7367180;19;20514;-69
2023/04/02 13:40:41;;;;;;;2.45;2.05;;;8.80;31.90;;;;;;7368773;19;20514;-67
2023/04/02 13:43:18;;;;;;;1.60;1.50;;;8.90;32.80;;;;;;7372896;19;20139;-69
2023/04/02 13:45:53;;;;;;;2.45;1.80;;;8.80;32.20;;;;;;7372769;19;20015;-68
2023/04/02 13:48:25;;;;;;;2.00;1.80;;;9.00;32.90;;;;;;7372142;19;20028;-69